Time;durP1;ratioP1;P1;durP2;ratioP2;P2;SDS_P1;SDS_P2;PMS_P1;PMS_P2;Temp;Humidity;BMP_temperature;BMP_pressure;BME280_temperature;BME280_humidity;BME280_pressure;Samples;Min_cycle;Max_cycle;Signal;HPM_P1;HPM_P2
2023/03/01 00:01:04;;;;;;;18.00;9.25;;;;;;;;;;5052833;28;20205;-67
2023/03/01 00:03:34;;;;;;;14.60;9.35;;;;;;;;;;5051635;28;20227;-68
2023/03/01 00:06:02;;;;;;;16.45;9.95;;;;;;;;;;5056463;28;20204;-68
2023/03/01 00:08:31;;;;;;;14.98;8.77;;;;;;;;;;5053227;28;20723;-68
2023/03/01 00:11:03;;;;;;;13.63;8.80;;;;;;;;;;5058833;28;20196;-67
2023/03/01 00:13:31;;;;;;;17.60;9.45;;;;;;;;;;5058832;28;20283;-68
2023/03/01 00:15:59;;;;;;;15.32;10.20;;;;;;;;;;5058809;28;20214;-68
2023/03/01 00:18:27;;;;;;;14.02;9.90;;;;;;;;;;5058808;28;20200;-68
2023/03/01 00:20:57;;;;;;;17.48;9.32;;;;;;;;;;5057745;28;20204;-68
2023/03/01 00:23:25;;;;;;;16.05;10.52;;;;;;;;;;5056150;28;20687;-69
2023/03/01 00:25:54;;;;;;;18.42;8.43;;;;;;;;;;5050564;28;20580;-68
2023/03/01 00:28:22;;;;;;;14.80;8.60;;;;;;;;;;5056132;28;20201;-67
2023/03/01 00:30:50;;;;;;;20.05;10.38;;;;;;;;;;5056610;28;20274;-67
2023/03/01 00:33:19;;;;;;;12.43;9.15;;;;;;;;;;5056380;28;20200;-68
2023/03/01 00:35:48;;;;;;;14.25;8.20;;;;;;;;;;5055458;28;20729;-68
2023/03/01 00:38:17;;;;;;;17.73;9.57;;;;;;;;;;5054935;28;20214;-67
2023/03/01 00:40:46;;;;;;;14.90;8.73;;;;;;;;;;5056641;28;20201;-68
2023/03/01 00:43:14;;;;;;;16.90;8.20;;;;;;;;;;5057473;28;20227;-69
2023/03/01 00:45:42;;;;;;;14.15;8.98;;;;;;;;;;5055664;28;20258;-68
2023/03/01 00:48:10;;;;;;;14.02;9.15;;;;;;;;;;5057748;28;20204;-68
2023/03/01 00:50:38;;;;;;;16.55;8.80;;;;;;;;;;5057376;28;20781;-68
2023/03/01 00:53:07;;;;;;;20.75;9.02;;;;;;;;;;5055978;28;20209;-67
2023/03/01 00:55:37;;;;;;;18.83;9.77;;;;;;;;;;5056991;28;20261;-67
2023/03/01 00:58:06;;;;;;;14.68;9.40;;;;;;;;;;5053091;28;20192;-67
2023/03/01 01:00:35;;;;;;;15.45;10.13;;;;;;;;;;5037693;28;20267;-67
2023/03/01 01:03:03;;;;;;;14.48;8.05;;;;;;;;;;5036714;28;20220;-67
2023/03/01 01:05:32;;;;;;;14.43;8.65;;;;;;;;;;5036808;28;20210;-68
2023/03/01 01:08:00;;;;;;;19.88;10.05;;;;;;;;;;5053090;28;20613;-68
2023/03/01 01:10:28;;;;;;;12.77;7.45;;;;;;;;;;5037728;28;20201;-67
2023/03/01 01:12:58;;;;;;;10.68;7.47;;;;;;;;;;5038165;28;20219;-68
2023/03/01 01:15:26;;;;;;;21.08;9.25;;;;;;;;;;5052045;28;20224;-68
2023/03/01 01:17:54;;;;;;;12.15;8.68;;;;;;;;;;5045592;28;20212;-68
2023/03/01 01:20:23;;;;;;;15.38;8.15;;;;;;;;;;5055666;28;20230;-68
2023/03/01 01:22:52;;;;;;;14.02;8.52;;;;;;;;;;5055723;28;20220;-67
2023/03/01 01:25:20;;;;;;;15.75;9.43;;;;;;;;;;5056284;28;20205;-68
2023/03/01 01:27:49;;;;;;;11.30;8.15;;;;;;;;;;5054736;28;20205;-68
2023/03/01 01:30:18;;;;;;;13.98;8.60;;;;;;;;;;5054687;28;20240;-67
2023/03/01 01:32:46;;;;;;;10.13;7.18;;;;;;;;;;5054561;28;20383;-67
2023/03/01 01:35:15;;;;;;;13.50;7.95;;;;;;;;;;5056520;28;20208;-67
2023/03/01 01:37:43;;;;;;;12.35;9.25;;;;;;;;;;5054698;28;20200;-67
2023/03/01 01:40:12;;;;;;;16.63;9.20;;;;;;;;;;5055787;28;20200;-67
2023/03/01 01:42:40;;;;;;;16.50;8.43;;;;;;;;;;5054739;28;20691;-67
2023/03/01 01:45:23;;;;;;;19.60;10.45;;;;;;;;;;5056952;28;20358;-67
2023/03/01 01:47:54;;;;;;;12.95;8.52;;;;;;;;;;5055918;28;20249;-67
2023/03/01 01:50:22;;;;;;;13.60;9.25;;;;;;;;;;5054761;28;20193;-67
2023/03/01 01:52:53;;;;;;;15.13;9.48;;;;;;;;;;5056058;28;20211;-67
2023/03/01 01:55:23;;;;;;;15.95;9.45;;;;;;;;;;5057280;28;20181;-67
2023/03/01 01:57:54;;;;;;;20.48;9.38;;;;;;;;;;5054760;28;20266;-67
2023/03/01 02:00:23;;;;;;;16.63;10.25;;;;;;;;;;5055098;28;20189;-67
2023/03/01 02:02:56;;;;;;;15.43;9.90;;;;;;;;;;5052542;28;20227;-67
2023/03/01 02:05:28;;;;;;;17.85;9.70;;;;;;;;;;5054345;28;20196;-67
2023/03/01 02:07:56;;;;;;;14.82;8.93;;;;;;;;;;5053896;28;20204;-67
2023/03/01 02:10:25;;;;;;;15.10;10.93;;;;;;;;;;5055157;28;20748;-68
2023/03/01 02:12:53;;;;;;;16.55;10.95;;;;;;;;;;5054633;28;20204;-68
2023/03/01 02:15:21;;;;;;;14.02;9.95;;;;;;;;;;5055360;28;20209;-68
2023/03/01 02:17:50;;;;;;;18.65;8.63;;;;;;;;;;5054694;28;20673;-68
2023/03/01 02:20:24;;;;;;;16.15;9.77;;;;;;;;;;5054874;28;20216;-68
2023/03/01 02:22:53;;;;;;;18.15;9.32;;;;;;;;;;5053667;28;20230;-68
2023/03/01 02:25:26;;;;;;;16.88;10.23;;;;;;;;;;5052336;28;20231;-68
2023/03/01 02:27:57;;;;;;;12.05;8.50;;;;;;;;;;5049443;28;20220;-68
2023/03/01 02:30:27;;;;;;;15.27;10.02;;;;;;;;;;5033965;28;20622;-68
2023/03/01 02:33:02;;;;;;;14.43;9.43;;;;;;;;;;5035204;28;20205;-68
2023/03/01 02:35:31;;;;;;;15.52;9.90;;;;;;;;;;5035361;28;20219;-68
2023/03/01 02:38:00;;;;;;;18.10;10.43;;;;;;;;;;5034880;28;20554;-68
2023/03/01 02:40:30;;;;;;;18.67;11.70;;;;;;;;;;5033588;28;20243;-68
2023/03/01 02:42:59;;;;;;;17.77;10.90;;;;;;;;;;5034543;28;20231;-68
2023/03/01 02:45:28;;;;;;;14.43;9.80;;;;;;;;;;5032815;28;20213;-67
2023/03/01 02:47:57;;;;;;;15.82;9.73;;;;;;;;;;5034794;28;20213;-67
2023/03/01 02:50:37;;;;;;;15.90;11.13;;;;;;;;;;5034329;28;20201;-67
2023/03/01 02:53:09;;;;;;;13.18;9.65;;;;;;;;;;5034386;28;20242;-67
2023/03/01 02:55:38;;;;;;;17.05;10.90;;;;;;;;;;5034358;28;20552;-67
2023/03/01 02:58:07;;;;;;;15.70;10.15;;;;;;;;;;5033129;28;20228;-67
2023/03/01 03:00:39;;;;;;;16.73;10.45;;;;;;;;;;5033008;28;20207;-67
2023/03/01 03:03:09;;;;;;;14.73;8.75;;;;;;;;;;5032948;28;20209;-67
2023/03/01 03:05:37;;;;;;;16.60;10.38;;;;;;;;;;5031562;28;20263;-67
2023/03/01 03:08:07;;;;;;;20.15;9.27;;;;;;;;;;5034344;28;20209;-67
2023/03/01 03:10:40;;;;;;;12.38;7.63;;;;;;;;;;5032446;28;20534;-67
2023/03/01 03:13:09;;;;;;;15.10;10.10;;;;;;;;;;5038411;28;20636;-67
2023/03/01 03:15:40;;;;;;;18.75;9.93;;;;;;;;;;5051842;28;20631;-67
2023/03/01 03:18:10;;;;;;;19.98;11.98;;;;;;;;;;5053988;28;20207;-67
2023/03/01 03:20:38;;;;;;;20.92;10.88;;;;;;;;;;5052602;28;20671;-68
2023/03/01 03:23:06;;;;;;;18.23;10.60;;;;;;;;;;5051789;28;20220;-67
2023/03/01 03:25:37;;;;;;;16.25;9.85;;;;;;;;;;5053555;28;20205;-67
2023/03/01 03:28:09;;;;;;;17.70;10.55;;;;;;;;;;5052621;28;20269;-68
2023/03/01 03:30:39;;;;;;;21.05;11.27;;;;;;;;;;5035901;28;20232;-68
2023/03/01 03:33:08;;;;;;;17.73;10.88;;;;;;;;;;5053085;28;20697;-68
2023/03/01 03:35:40;;;;;;;25.85;10.55;;;;;;;;;;5052249;28;20562;-68
2023/03/01 03:38:15;;;;;;;17.52;9.15;;;;;;;;;;5053128;28;20616;-68
2023/03/01 03:40:44;;;;;;;22.15;10.75;;;;;;;;;;5053107;28;20184;-67
2023/03/01 03:43:13;;;;;;;15.43;9.10;;;;;;;;;;5052964;28;20217;-67
2023/03/01 03:45:41;;;;;;;17.73;10.60;;;;;;;;;;5053672;28;20205;-67
2023/03/01 03:48:11;;;;;;;17.42;10.68;;;;;;;;;;5053303;28;20258;-67
2023/03/01 03:50:40;;;;;;;14.82;10.35;;;;;;;;;;5037856;28;20677;-67
2023/03/01 03:53:10;;;;;;;17.75;11.68;;;;;;;;;;5053073;28;20798;-67
2023/03/01 03:55:38;;;;;;;18.75;11.23;;;;;;;;;;5046354;28;20200;-67
2023/03/01 03:58:08;;;;;;;19.38;11.82;;;;;;;;;;5053914;28;20286;-67
2023/03/01 04:00:37;;;;;;;20.27;11.55;;;;;;;;;;5053584;28;20284;-67
2023/03/01 04:03:05;;;;;;;17.13;10.00;;;;;;;;;;5048760;28;20204;-67
2023/03/01 04:05:35;;;;;;;15.02;10.10;;;;;;;;;;5052079;28;20197;-67
2023/03/01 04:08:03;;;;;;;18.63;12.20;;;;;;;;;;5053222;28;20197;-67
2023/03/01 04:10:32;;;;;;;16.73;10.65;;;;;;;;;;5048668;28;20196;-67
2023/03/01 04:13:00;;;;;;;14.85;10.27;;;;;;;;;;5053103;28;20205;-67
2023/03/01 04:15:28;;;;;;;14.40;9.65;;;;;;;;;;5053063;28;20207;-67
2023/03/01 04:17:56;;;;;;;21.83;10.80;;;;;;;;;;5053429;28;20201;-67
2023/03/01 04:20:28;;;;;;;15.00;9.75;;;;;;;;;;5051745;28;20567;-67
2023/03/01 04:23:08;;;;;;;19.80;11.65;;;;;;;;;;5050811;28;20221;-67
2023/03/01 04:25:39;;;;;;;18.58;10.18;;;;;;;;;;5052581;28;20193;-67
2023/03/01 04:28:07;;;;;;;18.55;10.20;;;;;;;;;;5052401;28;20193;-67
2023/03/01 04:30:36;;;;;;;20.98;10.55;;;;;;;;;;5052401;28;20243;-68
2023/03/01 04:33:05;;;;;;;20.20;10.77;;;;;;;;;;5052976;28;20216;-67
2023/03/01 04:35:34;;;;;;;21.38;12.48;;;;;;;;;;5052379;28;20196;-67
2023/03/01 04:38:04;;;;;;;14.95;9.52;;;;;;;;;;5051657;28;20212;-67
2023/03/01 04:40:32;;;;;;;18.40;12.05;;;;;;;;;;5053352;28;20268;-67
2023/03/01 04:43:00;;;;;;;18.15;11.93;;;;;;;;;;5054526;28;20222;-67
2023/03/01 04:45:28;;;;;;;20.13;10.68;;;;;;;;;;5053544;28;20224;-67
2023/03/01 04:47:58;;;;;;;18.85;11.35;;;;;;;;;;5054049;28;20207;-67
2023/03/01 04:50:26;;;;;;;19.67;11.13;;;;;;;;;;5054654;28;20207;-67
2023/03/01 04:52:56;;;;;;;26.00;14.00;;;;;;;;;;5056863;28;20211;-67
2023/03/01 04:55:28;;;;;;;26.30;13.43;;;;;;;;;;5058153;28;20185;-67
2023/03/01 04:57:56;;;;;;;20.70;12.05;;;;;;;;;;5055510;28;20201;-67
2023/03/01 05:00:25;;;;;;;18.58;12.38;;;;;;;;;;5055187;28;20219;-67
2023/03/01 05:02:54;;;;;;;23.05;11.70;;;;;;;;;;5054381;28;20208;-67
2023/03/01 05:05:25;;;;;;;21.90;11.57;;;;;;;;;;5056277;28;20591;-67
2023/03/01 05:07:54;;;;;;;21.92;12.48;;;;;;;;;;5056350;28;20701;-68
2023/03/01 05:10:22;;;;;;;19.67;10.77;;;;;;;;;;5056658;28;20208;-67
2023/03/01 05:12:53;;;;;;;26.38;10.95;;;;;;;;;;5055135;28;20550;-67
2023/03/01 05:15:25;;;;;;;19.83;12.40;;;;;;;;;;5057404;28;20211;-67
2023/03/01 05:17:54;;;;;;;30.25;13.48;;;;;;;;;;5054967;28;20701;-67
2023/03/01 05:20:23;;;;;;;19.65;11.05;;;;;;;;;;5055815;28;20212;-67
2023/03/01 05:22:52;;;;;;;16.90;9.93;;;;;;;;;;5054972;28;20239;-68
2023/03/01 05:25:21;;;;;;;25.50;12.55;;;;;;;;;;5055689;28;20217;-67
2023/03/01 05:27:49;;;;;;;19.80;9.50;;;;;;;;;;5054410;28;20586;-67
2023/03/01 05:30:19;;;;;;;19.25;10.02;;;;;;;;;;5052031;28;20236;-67
2023/03/01 05:32:49;;;;;;;23.90;11.57;;;;;;;;;;5054543;28;20676;-67
2023/03/01 05:35:18;;;;;;;21.23;12.35;;;;;;;;;;5055598;28;20204;-67
2023/03/01 05:37:48;;;;;;;21.90;14.07;;;;;;;;;;5055486;28;20534;-67
2023/03/01 05:40:17;;;;;;;20.55;12.30;;;;;;;;;;5056483;28;20211;-67
2023/03/01 05:42:46;;;;;;;23.08;11.93;;;;;;;;;;5055201;28;20219;-67
2023/03/01 05:45:32;;;;;;;21.35;12.73;;;;;;;;;;5056212;28;20220;-67
2023/03/01 05:48:00;;;;;;;21.65;11.27;;;;;;;;;;5055358;28;20200;-67
2023/03/01 05:50:29;;;;;;;18.13;11.98;;;;;;;;;;5055896;28;20636;-68
2023/03/01 05:53:02;;;;;;;20.67;12.20;;;;;;;;;;5056212;28;20201;-68
2023/03/01 05:55:30;;;;;;;26.45;13.38;;;;;;;;;;5055093;28;20234;-67
2023/03/01 05:58:00;;;;;;;24.92;13.35;;;;;;;;;;5055363;28;20308;-67
2023/03/01 06:00:29;;;;;;;20.85;12.77;;;;;;;;;;5055059;28;20219;-68
2023/03/01 06:03:00;;;;;;;24.40;13.18;;;;;;;;;;5054279;28;20232;-68
2023/03/01 06:05:28;;;;;;;18.90;12.25;;;;;;;;;;5053503;28;20701;-67
2023/03/01 06:07:59;;;;;;;27.27;15.30;;;;;;;;;;5055125;28;20334;-67
2023/03/01 06:10:28;;;;;;;26.88;13.07;;;;;;;;;;5055329;28;20193;-67
2023/03/01 06:12:57;;;;;;;22.60;14.43;;;;;;;;;;5055236;28;20623;-67
2023/03/01 06:15:25;;;;;;;20.67;13.50;;;;;;;;;;5056720;28;20205;-67
2023/03/01 06:17:56;;;;;;;22.63;13.35;;;;;;;;;;5055772;28;20211;-67
2023/03/01 06:20:27;;;;;;;23.42;14.15;;;;;;;;;;5049799;28;20209;-67
2023/03/01 06:22:55;;;;;;;24.42;12.80;;;;;;;;;;5044907;28;20553;-68
2023/03/01 06:25:25;;;;;;;24.35;12.68;;;;;;;;;;5053049;28;20216;-68
2023/03/01 06:27:53;;;;;;;23.02;13.48;;;;;;;;;;5050382;28;20197;-67
2023/03/01 06:30:22;;;;;;;24.15;13.57;;;;;;;;;;5052689;28;20228;-67
2023/03/01 06:32:51;;;;;;;23.52;12.75;;;;;;;;;;5055084;28;20200;-67
2023/03/01 06:35:22;;;;;;;27.02;13.00;;;;;;;;;;5055437;28;20253;-67
2023/03/01 06:37:51;;;;;;;23.30;14.13;;;;;;;;;;5056584;28;20338;-67
2023/03/01 06:40:21;;;;;;;25.55;13.68;;;;;;;;;;5055452;28;20610;-67
2023/03/01 06:42:49;;;;;;;24.50;13.05;;;;;;;;;;5055181;28;20207;-67
2023/03/01 06:45:18;;;;;;;25.77;14.35;;;;;;;;;;5054797;28;20220;-67
2023/03/01 06:47:46;;;;;;;25.70;14.02;;;;;;;;;;5053957;28;20193;-67
2023/03/01 06:50:15;;;;;;;22.27;11.75;;;;;;;;;;5049229;28;20239;-68
2023/03/01 06:52:44;;;;;;;22.23;13.93;;;;;;;;;;5054441;28;20745;-68
2023/03/01 06:55:14;;;;;;;28.02;13.75;;;;;;;;;;5055328;28;20204;-66
2023/03/01 06:57:43;;;;;;;24.75;16.02;;;;;;;;;;5053370;28;20276;-67
2023/03/01 07:00:12;;;;;;;27.02;13.35;;;;;;;;;;5054308;28;20616;-66
2023/03/01 07:02:40;;;;;;;29.55;15.00;;;;;;;;;;5053710;28;20239;-67
2023/03/01 07:05:08;;;;;;;33.90;15.32;;;;;;;;;;5053075;28;20286;-67
2023/03/01 07:07:37;;;;;;;24.63;14.50;;;;;;;;;;5052678;28;20204;-67
2023/03/01 07:10:05;;;;;;;45.30;15.70;;;;;;;;;;5051964;28;20216;-67
2023/03/01 07:12:35;;;;;;;31.52;14.05;;;;;;;;;;5053516;28;20213;-68
2023/03/01 07:15:04;;;;;;;27.20;13.68;;;;;;;;;;5053357;28;20210;-68
2023/03/01 07:17:32;;;;;;;28.52;14.73;;;;;;;;;;5053019;28;20648;-68
2023/03/01 07:20:00;;;;;;;21.00;12.55;;;;;;;;;;5052101;28;20930;-68
2023/03/01 07:22:29;;;;;;;26.33;13.50;;;;;;;;;;5053133;28;20212;-67
2023/03/01 07:24:57;;;;;;;20.48;12.93;;;;;;;;;;5054497;28;20223;-68
2023/03/01 07:27:25;;;;;;;29.70;15.80;;;;;;;;;;5052394;28;20201;-67
2023/03/01 07:29:55;;;;;;;20.88;13.18;;;;;;;;;;5051186;28;20205;-67
2023/03/01 07:32:23;;;;;;;27.05;13.98;;;;;;;;;;5051910;28;20193;-66
2023/03/01 07:34:52;;;;;;;33.85;16.75;;;;;;;;;;5051597;28;20231;-66
2023/03/01 07:37:20;;;;;;;34.75;15.82;;;;;;;;;;5052562;28;20211;-66
2023/03/01 07:39:48;;;;;;;30.08;17.05;;;;;;;;;;5051773;28;20211;-65
2023/03/01 07:42:16;;;;;;;31.63;15.50;;;;;;;;;;5055132;28;20200;-66
2023/03/01 07:44:45;;;;;;;25.92;16.20;;;;;;;;;;5054755;28;20689;-66
2023/03/01 07:47:14;;;;;;;22.40;15.05;;;;;;;;;;5055353;28;20311;-66
2023/03/01 07:49:42;;;;;;;34.25;15.88;;;;;;;;;;5055271;28;20208;-66
2023/03/01 07:52:12;;;;;;;29.00;15.98;;;;;;;;;;5053215;28;20239;-66
2023/03/01 07:54:40;;;;;;;22.17;14.27;;;;;;;;;;5052322;28;20204;-66
2023/03/01 07:57:08;;;;;;;26.02;13.43;;;;;;;;;;5054359;28;20200;-66
2023/03/01 07:59:36;;;;;;;28.55;15.85;;;;;;;;;;5054409;28;20204;-67
2023/03/01 08:02:04;;;;;;;27.05;15.85;;;;;;;;;;5052264;28;20223;-68
2023/03/01 08:04:34;;;;;;;29.35;14.57;;;;;;;;;;5052742;28;20215;-68
2023/03/01 08:07:03;;;;;;;27.98;15.77;;;;;;;;;;5053212;28;20227;-69
2023/03/01 08:09:31;;;;;;;31.65;15.95;;;;;;;;;;5054435;28;20215;-69
2023/03/01 08:12:00;;;;;;;24.02;14.52;;;;;;;;;;5056052;28;20207;-69
2023/03/01 08:14:28;;;;;;;30.40;16.55;;;;;;;;;;5056090;28;20739;-67
2023/03/01 08:16:56;;;;;;;25.60;13.07;;;;;;;;;;5056620;28;20279;-68
2023/03/01 08:19:25;;;;;;;32.08;17.23;;;;;;;;;;5055721;28;20208;-67
2023/03/01 08:21:54;;;;;;;27.15;15.77;;;;;;;;;;5048619;28;20270;-67
2023/03/01 08:24:23;;;;;;;22.35;14.50;;;;;;;;;;5034926;28;20224;-67
2023/03/01 08:26:51;;;;;;;23.13;15.52;;;;;;;;;;5038066;28;20221;-68
2023/03/01 08:29:19;;;;;;;37.03;16.63;;;;;;;;;;5038941;28;20690;-69
2023/03/01 08:31:48;;;;;;;25.55;15.05;;;;;;;;;;5055305;28;20235;-67
2023/03/01 08:34:17;;;;;;;21.80;15.68;;;;;;;;;;5039008;28;20637;-66
2023/03/01 08:36:46;;;;;;;21.40;14.73;;;;;;;;;;5040224;28;20201;-67
2023/03/01 08:39:17;;;;;;;21.33;13.93;;;;;;;;;;5038968;28;20260;-66
2023/03/01 08:41:46;;;;;;;24.55;15.85;;;;;;;;;;5039051;28;20198;-66
2023/03/01 08:44:16;;;;;;;25.73;14.65;;;;;;;;;;5053503;28;20220;-67
2023/03/01 08:46:45;;;;;;;24.38;15.93;;;;;;;;;;5037451;28;20229;-67
2023/03/01 08:49:14;;;;;;;21.98;14.50;;;;;;;;;;5036669;28;20214;-68
2023/03/01 08:51:43;;;;;;;19.98;13.70;;;;;;;;;;5054095;28;20212;-68
2023/03/01 08:54:13;;;;;;;32.70;16.70;;;;;;;;;;5037966;28;20212;-68
2023/03/01 08:56:42;;;;;;;25.98;15.90;;;;;;;;;;5037601;28;20238;-68
2023/03/01 08:59:11;;;;;;;22.52;15.38;;;;;;;;;;5036978;28;20209;-68
2023/03/01 09:01:39;;;;;;;22.00;14.38;;;;;;;;;;5036098;28;20693;-68
2023/03/01 09:04:08;;;;;;;29.15;16.42;;;;;;;;;;5036492;28;20203;-67
2023/03/01 09:06:36;;;;;;;22.60;15.80;;;;;;;;;;5038037;28;20224;-67
2023/03/01 09:09:05;;;;;;;28.60;16.23;;;;;;;;;;5057630;28;20204;-66
2023/03/01 09:11:34;;;;;;;24.60;14.80;;;;;;;;;;5057667;28;20246;-65
2023/03/01 09:14:06;;;;;;;22.08;14.48;;;;;;;;;;5058608;28;20208;-67
2023/03/01 09:16:35;;;;;;;24.17;15.70;;;;;;;;;;5057867;28;20185;-66
2023/03/01 09:19:04;;;;;;;27.55;15.90;;;;;;;;;;5056825;28;20211;-66
2023/03/01 09:21:32;;;;;;;26.92;16.73;;;;;;;;;;5056292;28;20208;-66
2023/03/01 09:24:00;;;;;;;25.50;17.10;;;;;;;;;;5055721;28;20305;-67
2023/03/01 09:26:28;;;;;;;23.52;16.08;;;;;;;;;;5055476;28;20716;-66
2023/03/01 09:28:57;;;;;;;24.92;15.95;;;;;;;;;;5055300;28;20611;-67
2023/03/01 09:31:27;;;;;;;26.95;16.58;;;;;;;;;;5055805;28;20289;-66
2023/03/01 09:33:55;;;;;;;25.48;17.17;;;;;;;;;;5054213;28;20614;-66
2023/03/01 09:36:25;;;;;;;21.52;15.90;;;;;;;;;;5057325;28;20201;-66
2023/03/01 09:38:54;;;;;;;26.65;17.48;;;;;;;;;;5055766;28;20631;-67
2023/03/01 09:41:39;;;;;;;23.60;17.10;;;;;;;;;;5057672;28;20188;-66
2023/03/01 09:44:11;;;;;;;21.83;13.95;;;;;;;;;;5057401;28;20185;-67
2023/03/01 09:46:43;;;;;;;22.38;14.27;;;;;;;;;;5057366;28;20251;-67
2023/03/01 09:49:14;;;;;;;24.52;16.63;;;;;;;;;;5055121;28;20197;-67
2023/03/01 09:51:43;;;;;;;23.20;15.27;;;;;;;;;;5057291;28;20185;-67
2023/03/01 09:54:12;;;;;;;25.60;17.70;;;;;;;;;;5056882;28;20209;-67
2023/03/01 09:56:42;;;;;;;27.67;16.33;;;;;;;;;;5056845;28;20270;-66
2023/03/01 09:59:17;;;;;;;25.17;17.08;;;;;;;;;;5054972;28;20211;-66
2023/03/01 10:01:53;;;;;;;27.95;17.75;;;;;;;;;;5055101;28;20192;-67
2023/03/01 10:04:33;;;;;;;29.08;18.92;;;;;;;;;;5054628;28;20196;-68
2023/03/01 10:07:09;;;;;;;22.60;15.85;;;;;;;;;;5056484;28;20633;-68
2023/03/01 10:09:39;;;;;;;24.73;17.00;;;;;;;;;;5056519;28;20198;-68
2023/03/01 10:12:10;;;;;;;16.05;13.40;;;;;;;;;;5055078;28;20201;-67
2023/03/01 10:14:40;;;;;;;26.58;17.85;;;;;;;;;;5056076;28;20195;-67
2023/03/01 10:17:14;;;;;;;20.95;15.90;;;;;;;;;;5055937;28;20189;-68
2023/03/01 10:19:43;;;;;;;27.40;17.45;;;;;;;;;;5056465;28;20663;-67
2023/03/01 10:22:14;;;;;;;24.88;17.33;;;;;;;;;;5045969;28;20201;-67
2023/03/01 10:24:43;;;;;;;24.23;16.90;;;;;;;;;;5053079;28;20189;-67
2023/03/01 10:27:16;;;;;;;24.20;18.13;;;;;;;;;;5051748;28;20213;-66
2023/03/01 10:29:47;;;;;;;26.48;18.25;;;;;;;;;;5035991;28;20203;-66
2023/03/01 10:32:17;;;;;;;22.50;17.35;;;;;;;;;;5035833;28;20269;-68
2023/03/01 10:34:46;;;;;;;26.00;20.70;;;;;;;;;;5038676;28;20741;-67
2023/03/01 10:37:16;;;;;;;22.45;18.40;;;;;;;;;;5052903;28;20208;-67
2023/03/01 10:39:56;;;;;;;21.15;16.45;;;;;;;;;;5045171;28;20227;-67
2023/03/01 10:42:27;;;;;;;23.65;18.38;;;;;;;;;;5031960;28;20189;-68
2023/03/01 10:44:56;;;;;;;26.73;18.48;;;;;;;;;;5034277;28;20312;-67
2023/03/01 10:47:26;;;;;;;27.77;19.08;;;;;;;;;;5033428;28;20224;-67
2023/03/01 10:49:56;;;;;;;26.45;20.85;;;;;;;;;;5031025;28;20714;-66
2023/03/01 10:52:25;;;;;;;24.35;19.60;;;;;;;;;;5042693;28;20204;-65
2023/03/01 10:54:54;;;;;;;24.50;20.33;;;;;;;;;;5052893;28;20207;-66
2023/03/01 10:57:35;;;;;;;22.70;18.35;;;;;;;;;;5051840;28;20891;-66
2023/03/01 11:00:18;;;;;;;22.58;17.10;;;;;;;;;;5053085;28;20208;-66
2023/03/01 11:02:50;;;;;;;23.90;17.42;;;;;;;;;;5052201;28;20207;-66
2023/03/01 11:05:20;;;;;;;29.90;18.58;;;;;;;;;;5053630;28;20197;-66
2023/03/01 11:07:49;;;;;;;24.67;18.02;;;;;;;;;;5054483;28;20212;-66
2023/03/01 11:10:18;;;;;;;27.15;18.50;;;;;;;;;;5052970;28;20568;-66
2023/03/01 11:12:47;;;;;;;25.52;18.67;;;;;;;;;;5050804;28;20211;-66
2023/03/01 11:15:22;;;;;;;25.75;17.88;;;;;;;;;;5054051;28;20201;-66
2023/03/01 11:17:51;;;;;;;23.50;19.20;;;;;;;;;;5042837;28;20203;-66
2023/03/01 11:20:24;;;;;;;19.50;16.60;;;;;;;;;;5053000;28;20196;-66
2023/03/01 11:22:54;;;;;;;20.25;17.02;;;;;;;;;;5053092;28;20213;-66
2023/03/01 11:25:25;;;;;;;25.75;20.38;;;;;;;;;;5053197;28;20200;-67
2023/03/01 11:27:55;;;;;;;22.50;19.45;;;;;;;;;;5054203;28;20209;-67
2023/03/01 11:30:24;;;;;;;21.40;18.75;;;;;;;;;;5050848;28;20285;-68
2023/03/01 11:32:58;;;;;;;21.45;18.30;;;;;;;;;;5049754;28;20188;-68
2023/03/01 11:35:28;;;;;;;22.48;18.92;;;;;;;;;;5051626;28;20195;-68
2023/03/01 11:38:01;;;;;;;22.05;19.75;;;;;;;;;;5050027;28;20188;-68
2023/03/01 11:40:31;;;;;;;22.38;19.92;;;;;;;;;;5052414;28;20199;-68
2023/03/01 11:43:06;;;;;;;28.92;18.58;;;;;;;;;;5053466;28;20199;-67
2023/03/01 11:45:40;;;;;;;21.92;19.65;;;;;;;;;;5051772;28;20219;-67
2023/03/01 11:48:16;;;;;;;22.55;20.15;;;;;;;;;;5051679;28;20209;-67
2023/03/01 11:50:47;;;;;;;24.38;19.45;;;;;;;;;;5051999;28;20200;-67
2023/03/01 11:53:23;;;;;;;27.13;19.23;;;;;;;;;;5051746;28;20206;-68
2023/03/01 11:56:06;;;;;;;24.05;19.55;;;;;;;;;;5050958;28;20193;-67
2023/03/01 11:58:40;;;;;;;20.60;18.45;;;;;;;;;;5049223;28;20193;-67
2023/03/01 12:01:17;;;;;;;20.38;18.00;;;;;;;;;;5048533;28;20362;-67
2023/03/01 12:04:03;;;;;;;21.23;19.10;;;;;;;;;;5050777;28;20208;-67
2023/03/01 12:06:40;;;;;;;23.43;20.10;;;;;;;;;;5049974;28;20945;-66
2023/03/01 12:09:16;;;;;;;22.53;18.47;;;;;;;;;;5035593;28;20666;-67
2023/03/01 12:11:54;;;;;;;23.53;20.63;;;;;;;;;;5050742;28;20646;-67
2023/03/01 12:14:32;;;;;;;22.43;19.90;;;;;;;;;;5053026;28;20572;-67
2023/03/01 12:17:16;;;;;;;21.70;19.43;;;;;;;;;;5051818;28;20621;-67
2023/03/01 12:19:53;;;;;;;21.85;19.58;;;;;;;;;;5051897;28;20668;-67
2023/03/01 12:22:32;;;;;;;22.85;20.58;;;;;;;;;;5051114;28;20200;-67
2023/03/01 12:25:06;;;;;;;22.30;19.83;;;;;;;;;;5051112;28;20193;-67
2023/03/01 12:27:41;;;;;;;22.13;19.80;;;;;;;;;;5050818;28;20299;-67
2023/03/01 12:30:17;;;;;;;22.37;19.80;;;;;;;;;;5050354;28;20631;-67
2023/03/01 12:32:54;;;;;;;25.05;19.75;;;;;;;;;;5050885;28;20631;-67
2023/03/01 12:35:27;;;;;;;21.07;18.70;;;;;;;;;;5050842;28;20249;-67
2023/03/01 12:37:59;;;;;;;23.70;19.33;;;;;;;;;;5051189;28;20565;-67
2023/03/01 12:40:34;;;;;;;21.65;19.40;;;;;;;;;;5052009;28;20542;-67
2023/03/01 12:43:09;;;;;;;23.50;21.10;;;;;;;;;;5050343;28;20201;-66
2023/03/01 12:45:46;;;;;;;21.95;19.75;;;;;;;;;;5051942;28;20192;-66
2023/03/01 12:48:20;;;;;;;20.75;18.65;;;;;;;;;;5049988;28;20559;-67
2023/03/01 12:50:50;;;;;;;20.15;18.15;;;;;;;;;;5049545;28;20766;-67
2023/03/01 12:53:25;;;;;;;21.13;18.42;;;;;;;;;;5048943;28;20246;-67
2023/03/01 12:55:55;;;;;;;20.13;18.40;;;;;;;;;;5048871;28;20210;-67
2023/03/01 12:58:26;;;;;;;21.03;18.90;;;;;;;;;;5048595;28;20594;-67
2023/03/01 13:01:03;;;;;;;22.13;20.00;;;;;;;;;;5049823;28;20607;-66
2023/03/01 13:03:37;;;;;;;21.80;19.47;;;;;;;;;;5047173;28;20672;-68
2023/03/01 13:06:09;;;;;;;20.67;18.47;;;;;;;;;;5049636;28;20595;-68
2023/03/01 13:08:41;;;;;;;18.90;17.03;;;;;;;;;;5048317;28;21248;-68
2023/03/01 13:11:16;;;;;;;19.93;18.03;;;;;;;;;;5048862;28;20599;-67
2023/03/01 13:13:46;;;;;;;23.30;20.47;;;;;;;;;;5052438;28;21209;-67
2023/03/01 13:16:40;;;;;;;25.20;20.27;;;;;;;;;;5051780;28;20748;-67
2023/03/01 13:19:10;;;;;;;22.10;19.97;;;;;;;;;;5052618;28;20607;-69
2023/03/01 13:21:38;;;;;;;22.10;19.80;;;;;;;;;;5054000;28;21167;-68
2023/03/01 13:24:25;;;;;;;22.40;18.63;;;;;;;;;;5053281;28;20681;-69
2023/03/01 13:27:10;;;;;;;22.45;20.15;;;;;;;;;;5050551;28;20733;-68
2023/03/01 13:29:45;;;;;;;23.03;20.57;;;;;;;;;;5053658;28;20210;-68
2023/03/01 13:32:23;;;;;;;21.77;19.57;;;;;;;;;;5071247;28;20700;-69
2023/03/01 13:34:56;;;;;;;22.53;20.27;;;;;;;;;;5076271;28;20677;-68
2023/03/01 13:37:29;;;;;;;21.90;19.60;;;;;;;;;;5073892;28;20549;-68
2023/03/01 13:40:03;;;;;;;24.07;21.60;;;;;;;;;;5074320;28;20592;-67
2023/03/01 13:42:37;;;;;;;23.20;19.77;;;;;;;;;;5058416;28;20684;-68
2023/03/01 13:45:07;;;;;;;22.47;20.07;;;;;;;;;;5068482;28;20904;-68
2023/03/01 13:47:36;;;;;;;21.57;19.27;;;;;;;;;;5074647;28;20632;-68
2023/03/01 13:50:05;;;;;;;23.03;20.53;;;;;;;;;;5073986;28;20605;-68
2023/03/01 13:52:37;;;;;;;22.80;20.50;;;;;;;;;;5073980;28;20599;-67
2023/03/01 13:55:07;;;;;;;23.37;18.77;;;;;;;;;;5073938;28;20588;-67
2023/03/01 13:57:38;;;;;;;28.23;20.63;;;;;;;;;;5074778;28;20643;-67
2023/03/01 14:00:07;;;;;;;22.80;20.23;;;;;;;;;;5054556;28;20590;-67
2023/03/01 14:02:36;;;;;;;23.23;20.70;;;;;;;;;;5057131;28;20606;-67
2023/03/01 14:05:04;;;;;;;22.50;20.23;;;;;;;;;;5066379;28;20622;-68
2023/03/01 14:07:33;;;;;;;23.17;19.00;;;;;;;;;;5068366;28;20703;-68
2023/03/01 14:10:03;;;;;;;25.90;20.33;;;;;;;;;;5063276;28;21019;-68
2023/03/01 14:12:40;;;;;;;23.13;20.93;;;;;;;;;;5068754;28;21143;-67
2023/03/01 14:15:10;;;;;;;25.43;20.00;;;;;;;;;;5073090;28;20608;-67
2023/03/01 14:17:53;;;;;;;22.23;20.10;;;;;;;;;;5069534;28;20609;-67
2023/03/01 14:20:23;;;;;;;21.23;18.93;;;;;;;;;;5066137;28;20619;-67
2023/03/01 14:22:53;;;;;;;24.67;20.20;;;;;;;;;;5053242;28;20633;-67
2023/03/01 14:25:24;;;;;;;22.67;20.13;;;;;;;;;;5053471;28;20917;-67
2023/03/01 14:28:10;;;;;;;21.77;19.47;;;;;;;;;;5053764;28;21269;-66
2023/03/01 14:30:43;;;;;;;19.73;17.33;;;;;;;;;;5054115;28;20621;-67
2023/03/01 14:33:20;;;;;;;22.90;19.60;;;;;;;;;;5054120;28;20621;-67
2023/03/01 14:35:54;;;;;;;20.30;18.20;;;;;;;;;;5053940;28;20579;-66
2023/03/01 14:38:23;;;;;;;22.00;19.03;;;;;;;;;;5053802;28;20686;-66